createdAt,value
2022-12-31T00:00:42.246Z,98738.69
2022-12-31T00:01:45.189Z,98738.56
2022-12-31T00:02:48.292Z,98725.97
2022-12-31T00:03:51.381Z,98731.84
2022-12-31T00:04:55.244Z,98731.25
2022-12-31T00:05:58.342Z,98734.97
2022-12-31T00:07:01.276Z,98738.78
2022-12-31T00:08:04.700Z,98730.81
2022-12-31T00:09:08.982Z,98734.38
2022-12-31T00:10:12.135Z,98727.19
2022-12-31T00:11:15.699Z,98729.56
2022-12-31T00:12:18.748Z,98727.97
2022-12-31T00:13:21.981Z,98739.56
2022-12-31T00:14:25.033Z,98733.94
2022-12-31T00:15:28.328Z,98735.19
2022-12-31T00:16:36.750Z,98743.84
2022-12-31T00:17:39.983Z,98743.75
2022-12-31T00:18:50.844Z,98744.84
2022-12-31T00:19:53.575Z,98743.16
2022-12-31T00:20:56.477Z,98748.00
2022-12-31T00:21:59.388Z,98757.56
2022-12-31T00:23:02.348Z,98766.34
2022-12-31T00:24:06.741Z,98760.63
2022-12-31T00:25:10.307Z,98754.88
2022-12-31T00:26:17.056Z,98761.72
2022-12-31T00:27:19.939Z,98762.97
2022-12-31T00:28:22.904Z,98763.53
2022-12-31T00:29:25.919Z,98769.16
2022-12-31T00:30:28.891Z,98763.09
2022-12-31T00:31:37.716Z,98766.78
2022-12-31T00:32:40.859Z,98768.91
2022-12-31T00:33:44.824Z,98768.13
2022-12-31T00:34:47.743Z,98764.31
2022-12-31T00:35:50.622Z,98771.16
2022-12-31T00:36:53.990Z,98767.78
2022-12-31T00:37:57.189Z,98757.34
2022-12-31T00:39:01.550Z,98766.13
2022-12-31T00:40:05.428Z,98766.78
2022-12-31T00:41:11.380Z,98772.31
2022-12-31T00:42:14.251Z,98767.22
2022-12-31T00:43:17.511Z,98756.53
2022-12-31T00:44:20.568Z,98757.31
2022-12-31T00:45:23.521Z,98763.03
2022-12-31T00:46:26.852Z,98765.19
2022-12-31T00:47:33.104Z,98765.09
2022-12-31T00:48:40.140Z,98772.84
2022-12-31T00:49:43.376Z,98774.87
2022-12-31T00:50:46.605Z,98779.50
2022-12-31T00:51:49.564Z,98788.81
2022-12-31T00:52:52.404Z,98780.72
2022-12-31T00:53:56.273Z,98786.12
2022-12-31T00:54:59.471Z,98791.53
2022-12-31T00:56:20.950Z,98784.69
2022-12-31T00:57:24.140Z,98790.28
2022-12-31T00:58:27.592Z,98796.47
2022-12-31T00:59:30.511Z,98789.53
2022-12-31T01:00:37.103Z,98796.22
2022-12-31T01:01:41.252Z,98794.44
2022-12-31T01:02:44.538Z,98793.09
2022-12-31T01:03:49.057Z,98792.88
2022-12-31T01:04:52.112Z,98785.62
2022-12-31T01:05:59.580Z,98785.31
2022-12-31T01:07:02.583Z,98785.09
2022-12-31T01:09:16.501Z,98781.47
2022-12-31T01:10:37.996Z,98783.59
2022-12-31T01:11:41.442Z,98775.84
2022-12-31T01:12:44.354Z,98784.81
2022-12-31T01:14:08.111Z,98771.88
2022-12-31T01:15:11.403Z,98769.72
2022-12-31T01:16:15.122Z,98779.16
2022-12-31T01:17:18.062Z,98773.66
2022-12-31T01:18:21.378Z,98768.94
2022-12-31T01:19:27.333Z,98785.12
2022-12-31T01:20:31.023Z,98782.34
2022-12-31T01:21:35.010Z,98782.34
2022-12-31T01:22:38.058Z,98786.94
2022-12-31T01:23:41.546Z,98787.03
2022-12-31T01:24:44.739Z,98786.91
2022-12-31T01:25:47.661Z,98788.97
2022-12-31T01:26:51.663Z,98788.97
2022-12-31T01:27:54.909Z,98791.47
2022-12-31T01:28:58.427Z,98795.97
2022-12-31T01:30:01.406Z,98795.41
2022-12-31T01:31:10.778Z,98792.50
2022-12-31T01:32:13.862Z,98788.44
2022-12-31T01:33:16.787Z,98792.41
2022-12-31T01:34:19.857Z,98793.97
2022-12-31T01:35:22.782Z,98800.41
2022-12-31T01:36:28.539Z,98801.94
2022-12-31T01:37:31.457Z,98797.94
2022-12-31T01:38:35.431Z,98799.22
2022-12-31T01:39:38.589Z,98807.56
2022-12-31T01:40:41.844Z,98797.88
2022-12-31T01:41:47.907Z,98793.94
2022-12-31T01:42:59.331Z,98801.56
2022-12-31T01:44:25.390Z,98801.12
2022-12-31T01:45:29.219Z,98814.22
2022-12-31T01:46:39.956Z,98802.31
2022-12-31T01:47:48.499Z,98804.56
2022-12-31T01:48:55.820Z,98801.97
2022-12-31T01:50:06.577Z,98811.44
2022-12-31T01:51:10.988Z,98808.16
2022-12-31T01:52:21.623Z,98802.53
2022-12-31T01:53:24.909Z,98796.41
2022-12-31T01:54:30.230Z,98788.78
2022-12-31T01:55:46.819Z,98800.62
2022-12-31T01:56:52.831Z,98795.00
2022-12-31T01:58:11.577Z,98798.56
2022-12-31T01:59:17.860Z,98790.59
2022-12-31T02:00:20.834Z,98800.97
2022-12-31T02:01:32.905Z,98801.66
2022-12-31T02:02:36.405Z,98804.81
2022-12-31T02:03:40.432Z,98805.03
2022-12-31T02:04:43.701Z,98804.94
2022-12-31T02:05:54.340Z,98797.63
2022-12-31T02:07:01.416Z,98803.69
2022-12-31T02:08:06.655Z,98808.53
2022-12-31T02:09:11.017Z,98811.91
2022-12-31T02:10:14.034Z,98807.38
2022-12-31T02:11:36.837Z,98808.84
2022-12-31T02:12:40.419Z,98814.16
2022-12-31T02:13:43.457Z,98813.69
2022-12-31T02:14:51.325Z,98809.03
2022-12-31T02:16:00.238Z,98814.59
2022-12-31T02:17:03.170Z,98817.19
2022-12-31T02:18:38.301Z,98813.91
2022-12-31T02:19:50.319Z,98813.25
2022-12-31T02:21:25.298Z,98810.19
2022-12-31T02:23:05.666Z,98806.38
2022-12-31T02:24:29.790Z,98803.53
2022-12-31T02:25:57.697Z,98797.37
2022-12-31T02:27:06.447Z,98801.09
2022-12-31T02:28:43.417Z,98804.00
2022-12-31T02:30:23.322Z,98802.94
2022-12-31T02:31:50.199Z,98807.47
2022-12-31T02:33:02.889Z,98814.09
2022-12-31T02:34:27.815Z,98813.41
2022-12-31T02:35:34.200Z,98822.66
2022-12-31T02:36:40.907Z,98821.03
2022-12-31T02:37:46.771Z,98820.91
2022-12-31T02:38:50.652Z,98819.25
2022-12-31T02:39:54.685Z,98820.03
2022-12-31T02:40:58.003Z,98817.66
2022-12-31T02:42:02.082Z,98818.44
2022-12-31T02:43:05.525Z,98815.06
2022-12-31T02:44:30.222Z,98813.72
2022-12-31T02:45:38.460Z,98816.72
2022-12-31T02:46:49.468Z,98813.81
2022-12-31T02:48:13.883Z,98814.38
2022-12-31T02:49:24.294Z,98811.31
2022-12-31T02:50:57.556Z,98817.06
2022-12-31T02:52:06.218Z,98807.06
2022-12-31T02:53:21.887Z,98803.78
2022-12-31T02:54:37.196Z,98800.88
2022-12-31T02:55:58.690Z,98806.09
2022-12-31T02:57:28.425Z,98790.00
2022-12-31T02:58:54.642Z,98806.22
2022-12-31T03:00:28.479Z,98802.25
2022-12-31T03:01:56.350Z,98803.59
2022-12-31T03:03:01.377Z,98799.91
2022-12-31T03:04:25.657Z,98796.44
2022-12-31T03:05:32.433Z,98795.25
2022-12-31T03:06:35.621Z,98797.56
2022-12-31T03:07:40.910Z,98798.13
2022-12-31T03:09:02.554Z,98807.03
2022-12-31T03:10:05.918Z,98801.19
2022-12-31T03:11:28.871Z,98807.16
2022-12-31T03:12:50.126Z,98804.22
2022-12-31T03:13:54.359Z,98792.09
2022-12-31T03:14:57.442Z,98788.50
2022-12-31T03:16:00.415Z,98790.22
2022-12-31T03:17:05.342Z,98790.34
2022-12-31T03:18:11.970Z,98787.81
2022-12-31T03:19:33.940Z,98793.72
2022-12-31T03:21:15.457Z,98799.63
2022-12-31T03:22:30.460Z,98793.31
2022-12-31T03:23:42.300Z,98797.03
2022-12-31T03:25:03.850Z,98797.50
2022-12-31T03:26:12.211Z,98788.94
2022-12-31T03:27:15.498Z,98785.34
2022-12-31T03:28:20.786Z,98787.16
2022-12-31T03:29:23.793Z,98787.00
2022-12-31T03:30:27.700Z,98792.62
2022-12-31T03:31:30.655Z,98782.97
2022-12-31T03:32:33.709Z,98787.09
2022-12-31T03:33:39.982Z,98792.19
2022-12-31T03:34:43.103Z,98784.88
2022-12-31T03:35:51.136Z,98791.50
2022-12-31T03:36:57.434Z,98786.09
2022-12-31T03:38:01.511Z,98792.19
2022-12-31T03:39:06.341Z,98793.78
2022-12-31T03:40:12.303Z,98783.63
2022-12-31T03:41:15.384Z,98788.59
2022-12-31T03:42:18.465Z,98790.38
2022-12-31T03:43:21.511Z,98787.00
2022-12-31T03:44:24.529Z,98790.59
2022-12-31T03:45:27.651Z,98792.19
2022-12-31T03:46:30.722Z,98792.19
2022-12-31T03:47:33.689Z,98785.34
2022-12-31T03:48:38.362Z,98792.78
2022-12-31T03:49:41.349Z,98794.25
2022-12-31T03:50:44.916Z,98797.63
2022-12-31T03:51:47.849Z,98801.66
2022-12-31T03:52:50.729Z,98789.31
2022-12-31T03:53:53.670Z,98789.13
2022-12-31T03:54:56.577Z,98782.78
2022-12-31T03:55:59.457Z,98787.06
2022-12-31T03:57:02.744Z,98786.88
2022-12-31T03:58:05.941Z,98785.16
2022-12-31T03:59:08.976Z,98782.91
2022-12-31T04:00:18.746Z,98786.25
2022-12-31T04:01:25.734Z,98783.53
2022-12-31T04:02:29.702Z,98789.91
2022-12-31T04:03:32.709Z,98781.22
2022-12-31T04:04:35.456Z,98779.44
2022-12-31T04:05:38.390Z,98783.03
2022-12-31T04:06:41.200Z,98784.00
2022-12-31T04:07:44.330Z,98782.59
2022-12-31T04:08:51.191Z,98777.75
2022-12-31T04:09:55.801Z,98774.84
2022-12-31T04:10:58.996Z,98779.84
2022-12-31T04:12:02.870Z,98783.44
2022-12-31T04:13:05.880Z,98782.75
2022-12-31T04:14:08.970Z,98790.84
2022-12-31T04:15:17.580Z,98781.31
2022-12-31T04:16:20.857Z,98790.78
2022-12-31T04:17:24.276Z,98788.97
2022-12-31T04:18:29.081Z,98789.19
2022-12-31T04:19:32.112Z,98779.25
2022-12-31T04:20:35.015Z,98787.00
2022-12-31T04:21:38.125Z,98791.63
2022-12-31T04:22:41.341Z,98790.59
2022-12-31T04:23:44.267Z,98798.34
2022-12-31T04:24:47.381Z,98812.94
2022-12-31T04:25:50.448Z,98819.16
2022-12-31T04:26:53.347Z,98818.72
2022-12-31T04:27:56.744Z,98819.63
2022-12-31T04:29:03.401Z,98811.03
2022-12-31T04:30:07.406Z,98816.44
2022-12-31T04:31:11.449Z,98807.69
2022-12-31T04:32:14.441Z,98823.19
2022-12-31T04:33:17.407Z,98815.12
2022-12-31T04:34:20.622Z,98812.63
2022-12-31T04:35:23.579Z,98804.53
2022-12-31T04:36:27.218Z,98815.09
2022-12-31T04:37:30.371Z,98818.69
2022-12-31T04:38:34.794Z,98819.91
2022-12-31T04:39:38.441Z,98819.13
2022-12-31T04:41:01.368Z,98825.84
2022-12-31T04:42:04.476Z,98822.16
2022-12-31T04:43:07.629Z,98824.59
2022-12-31T04:44:10.543Z,98824.34
2022-12-31T04:45:13.420Z,98826.81
2022-12-31T04:46:18.333Z,98832.47
2022-12-31T04:47:23.811Z,98830.34
2022-12-31T04:48:27.089Z,98825.38
2022-12-31T04:49:30.163Z,98830.97
2022-12-31T04:50:36.430Z,98836.56
2022-12-31T04:51:39.808Z,98843.88
2022-12-31T04:52:43.172Z,98833.41
2022-12-31T04:53:46.467Z,98840.38
2022-12-31T04:54:49.553Z,98834.66
2022-12-31T04:55:52.955Z,98842.75
2022-12-31T04:56:55.931Z,98847.47
2022-12-31T04:57:58.981Z,98841.66
2022-12-31T04:59:02.086Z,98841.97
2022-12-31T05:00:05.365Z,98848.28
2022-12-31T05:01:09.079Z,98841.38
2022-12-31T05:02:12.894Z,98851.63
2022-12-31T05:03:17.559Z,98853.44
2022-12-31T05:04:20.573Z,98856.38
2022-12-31T05:05:23.863Z,98855.03
2022-12-31T05:06:27.412Z,98856.72
2022-12-31T05:07:30.581Z,98858.31
2022-12-31T05:08:34.391Z,98858.94
2022-12-31T05:09:38.799Z,98862.91
2022-12-31T05:10:43.816Z,98872.75
2022-12-31T05:11:46.821Z,98883.34
2022-12-31T05:12:49.804Z,98885.75
2022-12-31T05:13:52.726Z,98886.53
2022-12-31T05:14:55.739Z,98887.94
2022-12-31T05:15:58.889Z,98871.38
2022-12-31T05:17:05.405Z,98876.53
2022-12-31T05:18:09.579Z,98878.69
2022-12-31T05:19:12.541Z,98881.63
2022-12-31T05:20:15.662Z,98876.03
2022-12-31T05:21:21.490Z,98884.47
2022-12-31T05:22:30.546Z,98886.09
2022-12-31T05:23:33.501Z,98880.34
2022-12-31T05:24:36.470Z,98874.75
2022-12-31T05:25:39.502Z,98878.59
2022-12-31T05:26:42.492Z,98874.31
2022-12-31T05:27:45.558Z,98871.22
2022-12-31T05:28:48.459Z,98873.81
2022-12-31T05:29:51.537Z,98871.44
2022-12-31T05:30:54.699Z,98881.47
2022-12-31T05:31:57.904Z,98887.56
2022-12-31T05:33:01.069Z,98881.34
2022-12-31T05:34:03.986Z,98881.63
2022-12-31T05:35:07.867Z,98877.12
2022-12-31T05:36:10.960Z,98887.00
2022-12-31T05:37:13.937Z,98889.38
2022-12-31T05:38:17.263Z,98892.75
2022-12-31T05:39:20.224Z,98892.31
2022-12-31T05:40:23.274Z,98889.22
2022-12-31T05:41:26.348Z,98899.22
2022-12-31T05:42:29.188Z,98891.03
2022-12-31T05:43:32.694Z,98892.94
2022-12-31T05:44:35.601Z,98897.91
2022-12-31T05:45:38.682Z,98903.78
2022-12-31T05:46:41.831Z,98900.00
2022-12-31T05:47:45.357Z,98900.00
2022-12-31T05:48:48.475Z,98902.56
2022-12-31T05:49:51.870Z,98905.44
2022-12-31T05:50:55.358Z,98911.16
2022-12-31T05:51:58.451Z,98910.09
2022-12-31T05:53:01.564Z,98917.34
2022-12-31T05:54:04.957Z,98917.84
2022-12-31T05:55:08.414Z,98912.69
2022-12-31T05:56:11.427Z,98914.31
2022-12-31T05:57:14.454Z,98914.00
2022-12-31T05:58:17.429Z,98915.56
2022-12-31T05:59:20.775Z,98911.44
2022-12-31T06:00:23.849Z,98905.25
2022-12-31T06:01:26.943Z,98906.94
2022-12-31T06:02:29.918Z,98907.09
2022-12-31T06:03:33.375Z,98910.09
2022-12-31T06:04:36.260Z,98914.34
2022-12-31T06:05:45.109Z,98920.31
2022-12-31T06:06:48.102Z,98916.00
2022-12-31T06:07:51.141Z,98921.41
2022-12-31T06:08:58.219Z,98922.75
2022-12-31T06:10:01.421Z,98923.34
2022-12-31T06:11:04.457Z,98923.19
2022-12-31T06:12:08.044Z,98922.50
2022-12-31T06:13:11.151Z,98919.72
2022-12-31T06:14:14.501Z,98923.53
2022-12-31T06:15:17.520Z,98923.12
2022-12-31T06:16:20.625Z,98924.81
2022-12-31T06:17:23.739Z,98927.13
2022-12-31T06:18:26.865Z,98929.62
2022-12-31T06:19:30.187Z,98921.72
2022-12-31T06:20:33.274Z,98922.06
2022-12-31T06:21:36.422Z,98904.09
2022-12-31T06:22:39.411Z,98910.03
2022-12-31T06:23:42.358Z,98912.50
2022-12-31T06:24:45.745Z,98912.88
2022-12-31T06:25:48.866Z,98913.91
2022-12-31T06:26:51.867Z,98915.25
2022-12-31T06:27:54.829Z,98906.50
2022-12-31T06:28:58.139Z,98919.59
2022-12-31T06:30:01.042Z,98917.56
2022-12-31T06:31:06.590Z,98923.03
2022-12-31T06:32:12.740Z,98923.69
2022-12-31T06:33:15.892Z,98926.19
2022-12-31T06:34:19.042Z,98926.81
2022-12-31T06:35:22.300Z,98932.91
2022-12-31T06:36:27.128Z,98922.91
2022-12-31T06:37:30.403Z,98916.53
2022-12-31T06:38:35.485Z,98921.84
2022-12-31T06:39:38.665Z,98920.03
2022-12-31T06:40:41.830Z,98918.56
2022-12-31T06:41:44.880Z,98923.19
2022-12-31T06:42:47.971Z,98926.22
2022-12-31T06:43:51.109Z,98929.59
2022-12-31T06:44:54.138Z,98931.72
2022-12-31T06:46:01.069Z,98934.87
2022-12-31T06:47:04.185Z,98933.75
2022-12-31T06:48:08.157Z,98931.16
2022-12-31T06:49:11.116Z,98923.66
2022-12-31T06:50:14.229Z,98925.87
2022-12-31T06:51:20.105Z,98932.66
2022-12-31T06:52:23.304Z,98927.69
2022-12-31T06:53:29.291Z,98934.56
2022-12-31T06:54:32.419Z,98928.81
2022-12-31T06:55:36.024Z,98936.69
2022-12-31T06:56:39.302Z,98935.44
2022-12-31T06:57:42.489Z,98928.38
2022-12-31T06:58:46.474Z,98940.19
2022-12-31T06:59:49.835Z,98932.75
2022-12-31T07:01:15.217Z,98938.81
2022-12-31T07:02:44.638Z,98941.78
2022-12-31T07:04:27.225Z,98946.38
2022-12-31T07:05:39.620Z,98946.12
2022-12-31T07:07:08.502Z,98949.56
2022-12-31T07:08:29.342Z,98944.88
2022-12-31T07:09:46.670Z,98945.25
2022-12-31T07:11:02.973Z,98938.47
2022-12-31T07:12:20.938Z,98950.00
2022-12-31T07:13:32.658Z,98940.97
2022-12-31T07:14:48.945Z,98934.00
2022-12-31T07:16:10.857Z,98941.31
2022-12-31T07:17:28.817Z,98933.34
2022-12-31T07:18:51.426Z,98936.03
2022-12-31T07:20:03.100Z,98936.16
2022-12-31T07:21:13.142Z,98950.81
2022-12-31T07:22:17.623Z,98946.97
2022-12-31T07:23:21.510Z,98949.63
2022-12-31T07:24:24.779Z,98952.59
2022-12-31T07:25:28.221Z,98960.81
2022-12-31T07:27:06.346Z,98953.94
2022-12-31T07:28:15.586Z,98955.28
2022-12-31T07:29:53.620Z,98950.69
2022-12-31T07:31:12.388Z,98952.38
2022-12-31T07:32:34.300Z,98948.87
2022-12-31T07:34:00.345Z,98949.22
2022-12-31T07:35:35.018Z,98956.78
2022-12-31T07:37:07.701Z,98952.38
2022-12-31T07:38:38.525Z,98949.91
2022-12-31T07:40:02.204Z,98951.47
2022-12-31T07:41:23.572Z,98954.50
2022-12-31T07:42:57.867Z,98954.31
2022-12-31T07:44:13.168Z,98952.38
2022-12-31T07:45:34.017Z,98963.75
2022-12-31T07:46:36.947Z,98976.69
2022-12-31T07:47:39.923Z,98974.44
2022-12-31T07:48:43.362Z,98976.00
2022-12-31T07:49:46.627Z,98969.03
2022-12-31T07:50:50.903Z,98973.53
2022-12-31T07:51:54.587Z,98974.66
2022-12-31T07:52:58.639Z,98979.03
2022-12-31T07:54:01.657Z,98979.37
2022-12-31T07:55:04.991Z,98972.72
2022-12-31T07:56:09.344Z,98982.72
2022-12-31T07:57:13.661Z,98973.16
2022-12-31T07:58:25.993Z,98970.66
2022-12-31T08:00:03.373Z,98974.75
2022-12-31T08:01:11.846Z,98971.50
2022-12-31T08:02:37.018Z,98975.84
2022-12-31T08:04:00.473Z,98974.69
2022-12-31T08:05:14.113Z,98972.97
2022-12-31T08:06:34.285Z,98969.78
2022-12-31T08:07:51.980Z,98980.47
2022-12-31T08:08:57.805Z,98993.09
2022-12-31T08:10:06.496Z,98993.59
2022-12-31T08:11:15.805Z,99004.78
2022-12-31T08:12:19.945Z,99010.31
2022-12-31T08:13:22.840Z,99009.84
2022-12-31T08:14:27.148Z,99013.03
2022-12-31T08:15:30.940Z,99021.12
2022-12-31T08:16:37.513Z,99025.81
2022-12-31T08:17:41.815Z,99022.41
2022-12-31T08:18:45.132Z,99019.00
2022-12-31T08:19:48.955Z,99032.78
2022-12-31T08:21:05.052Z,99042.59
2022-12-31T08:22:29.215Z,99032.78
2022-12-31T08:23:54.969Z,99030.09
2022-12-31T08:25:03.897Z,99039.75
2022-12-31T08:26:14.968Z,99040.69
2022-12-31T08:28:00.711Z,99037.53
2022-12-31T08:29:40.535Z,99037.75
2022-12-31T08:31:10.101Z,99054.44
2022-12-31T08:32:45.343Z,99053.28
2022-12-31T08:34:07.753Z,99051.47
2022-12-31T08:35:35.493Z,99055.69
2022-12-31T08:36:45.736Z,99068.06
2022-12-31T08:37:58.571Z,99068.53
2022-12-31T08:39:07.819Z,99071.44
2022-12-31T08:40:22.665Z,99073.25
2022-12-31T08:41:48.278Z,99077.31
2022-12-31T08:43:20.139Z,99079.69
2022-12-31T08:44:36.789Z,99080.25
2022-12-31T08:45:46.819Z,99084.97
2022-12-31T08:47:00.892Z,99091.84
2022-12-31T08:48:21.582Z,99085.63
2022-12-31T08:49:28.010Z,99074.13
2022-12-31T08:50:31.662Z,99066.44
2022-12-31T08:51:35.178Z,99068.91
2022-12-31T08:52:38.624Z,99063.81
2022-12-31T08:53:42.041Z,99068.97
2022-12-31T08:54:45.317Z,99082.91
2022-12-31T08:55:53.806Z,99075.09
2022-12-31T08:57:21.557Z,99072.28
2022-12-31T08:58:57.298Z,99082.72
2022-12-31T09:00:11.738Z,99083.53
2022-12-31T09:01:21.864Z,99094.87
2022-12-31T09:02:48.477Z,99089.94
2022-12-31T09:04:05.252Z,99096.13
2022-12-31T09:05:23.640Z,99089.66
2022-12-31T09:06:34.416Z,99091.06
2022-12-31T09:07:41.959Z,99083.75
2022-12-31T09:08:54.134Z,99082.31
2022-12-31T09:10:06.272Z,99080.13
2022-12-31T09:11:23.898Z,99085.63
2022-12-31T09:12:43.166Z,99081.16
2022-12-31T09:14:08.037Z,99076.28
2022-12-31T09:15:23.300Z,99075.88
2022-12-31T09:16:41.333Z,99080.22
2022-12-31T09:17:52.444Z,99074.28
2022-12-31T09:18:55.819Z,99073.19
2022-12-31T09:19:59.278Z,99077.28
2022-12-31T09:21:02.452Z,99076.41
2022-12-31T09:22:05.608Z,99070.44
2022-12-31T09:23:08.879Z,99063.13
2022-12-31T09:24:16.093Z,99063.13
2022-12-31T09:25:21.743Z,99067.06
2022-12-31T09:26:31.108Z,99059.25
2022-12-31T09:27:42.760Z,99054.84
2022-12-31T09:29:14.876Z,99054.16
2022-12-31T09:30:19.036Z,99052.25
2022-12-31T09:31:49.985Z,99043.03
2022-12-31T09:33:21.572Z,99050.28
2022-12-31T09:34:33.658Z,99051.97
2022-12-31T09:35:57.420Z,99042.34
2022-12-31T09:37:07.073Z,99040.34
2022-12-31T09:38:23.067Z,99043.59
2022-12-31T09:39:41.372Z,99041.91
2022-12-31T09:41:06.674Z,99034.00
2022-12-31T09:42:15.338Z,99028.38
2022-12-31T09:43:45.424Z,99032.13
2022-12-31T09:45:18.879Z,99028.78
2022-12-31T09:46:53.677Z,99028.03
2022-12-31T09:48:15.120Z,99019.06
2022-12-31T09:50:03.232Z,99031.16
2022-12-31T09:51:25.575Z,99026.94
2022-12-31T09:52:43.310Z,99019.69
2022-12-31T09:54:05.023Z,99015.09
2022-12-31T09:55:08.020Z,99017.03
2022-12-31T09:56:13.240Z,99013.19
2022-12-31T09:57:18.936Z,99016.41
2022-12-31T09:58:21.892Z,99011.78
2022-12-31T09:59:43.002Z,99004.75
2022-12-31T10:00:57.073Z,99000.34
2022-12-31T10:02:16.360Z,99009.50
2022-12-31T10:03:28.449Z,99004.56
2022-12-31T10:04:55.536Z,99003.78
2022-12-31T10:06:21.322Z,99001.69
2022-12-31T10:07:50.420Z,99005.84
2022-12-31T10:09:02.544Z,99008.50
2022-12-31T10:10:26.599Z,99005.38
2022-12-31T10:11:29.638Z,99012.69
2022-12-31T10:12:51.254Z,99011.63
2022-12-31T10:14:33.419Z,99016.59
2022-12-31T10:15:54.922Z,99013.97
2022-12-31T10:17:23.365Z,99015.03
2022-12-31T10:18:35.861Z,99018.41
2022-12-31T10:19:56.801Z,99019.75
2022-12-31T10:21:18.415Z,99019.25
2022-12-31T10:22:44.219Z,99023.66
2022-12-31T10:24:19.143Z,99022.44
2022-12-31T10:25:55.419Z,99022.91
2022-12-31T10:27:50.349Z,99019.50
2022-12-31T10:29:26.944Z,99019.44
2022-12-31T10:30:35.139Z,99022.22
2022-12-31T10:31:56.768Z,99032.50
2022-12-31T10:33:09.331Z,99035.94
2022-12-31T10:34:39.068Z,99035.22
2022-12-31T10:35:59.724Z,99035.78
2022-12-31T10:37:15.503Z,99036.75
2022-12-31T10:38:24.888Z,99026.56
2022-12-31T10:39:41.502Z,99026.16
2022-12-31T10:41:08.702Z,99010.72
2022-12-31T10:42:52.953Z,99014.91
2022-12-31T10:43:56.112Z,99022.25
2022-12-31T10:45:17.281Z,99032.22
2022-12-31T10:46:38.443Z,99029.59
2022-12-31T10:48:18.980Z,99025.91
2022-12-31T10:49:49.581Z,99023.50
2022-12-31T10:50:55.511Z,99028.13
2022-12-31T10:52:16.705Z,99020.81
2022-12-31T10:53:37.926Z,99023.97
2022-12-31T10:54:56.037Z,99033.87
2022-12-31T10:56:09.844Z,99028.72
2022-12-31T10:57:55.374Z,99017.69
2022-12-31T10:59:38.289Z,99022.72
2022-12-31T11:01:13.802Z,99027.88
2022-12-31T11:03:01.639Z,99030.53
2022-12-31T11:04:29.976Z,99021.62
2022-12-31T11:05:57.284Z,99028.62
2022-12-31T11:07:30.051Z,99022.22
2022-12-31T11:08:48.217Z,99023.72
2022-12-31T11:10:09.472Z,99023.72
2022-12-31T11:11:29.029Z,99023.97
2022-12-31T11:12:40.613Z,99028.88
2022-12-31T11:14:02.311Z,99037.56
2022-12-31T11:15:38.060Z,99020.81
2022-12-31T11:17:01.730Z,99019.25
2022-12-31T11:18:18.578Z,99007.53
2022-12-31T11:19:34.032Z,99010.41
2022-12-31T11:20:47.826Z,99010.75
2022-12-31T11:22:21.126Z,99007.94
2022-12-31T11:23:48.962Z,99006.38
2022-12-31T11:25:13.258Z,99006.12
2022-12-31T11:26:34.525Z,99012.94
2022-12-31T11:28:18.947Z,99007.72
2022-12-31T11:29:38.500Z,99009.00
2022-12-31T11:31:00.342Z,99016.59
2022-12-31T11:32:11.325Z,99012.69
2022-12-31T11:33:43.029Z,99014.03
2022-12-31T11:35:09.026Z,99011.97
2022-12-31T11:36:15.816Z,99009.31
2022-12-31T11:37:31.647Z,99006.00
2022-12-31T11:38:41.078Z,99003.63
2022-12-31T11:40:09.776Z,99008.31
2022-12-31T11:41:28.845Z,99000.50
2022-12-31T11:43:00.708Z,98999.47
2022-12-31T11:44:12.509Z,98999.22
2022-12-31T11:45:22.382Z,98998.81
2022-12-31T11:46:25.310Z,99001.41
2022-12-31T11:48:29.250Z,98990.19
2022-12-31T11:49:21.863Z,98980.56
2022-12-31T11:51:06.838Z,98986.63
2022-12-31T11:52:22.050Z,98984.25
2022-12-31T11:53:57.694Z,98989.19
2022-12-31T11:55:19.960Z,98996.84
2022-12-31T11:56:26.409Z,99004.47
2022-12-31T11:57:38.386Z,99007.88
2022-12-31T11:58:50.157Z,99012.28
2022-12-31T12:00:26.735Z,99001.09
2022-12-31T12:01:49.480Z,99008.91
2022-12-31T12:02:57.044Z,99005.28
2022-12-31T12:04:00.676Z,99016.00
2022-12-31T12:05:11.070Z,99014.69
2022-12-31T12:06:15.944Z,99018.59
2022-12-31T12:07:19.704Z,99022.00
2022-12-31T12:08:23.513Z,99024.13
2022-12-31T12:09:29.528Z,99016.28
2022-12-31T12:10:46.747Z,99024.91
2022-12-31T12:11:59.958Z,99025.16
2022-12-31T12:13:26.384Z,99029.88
2022-12-31T12:14:34.151Z,99023.84
2022-12-31T12:15:37.081Z,99012.63
2022-12-31T12:16:40.474Z,99026.47
2022-12-31T12:17:43.846Z,99020.97
2022-12-31T12:18:51.300Z,99013.91
2022-12-31T12:19:56.892Z,99022.00
2022-12-31T12:21:12.959Z,99021.22
2022-12-31T12:22:25.409Z,99008.94
2022-12-31T12:23:28.948Z,99007.06
2022-12-31T12:24:31.704Z,99003.09
2022-12-31T12:25:40.836Z,99013.16
2022-12-31T12:26:45.679Z,99015.13
2022-12-31T12:27:49.037Z,99004.28
2022-12-31T12:28:52.298Z,99001.84
2022-12-31T12:29:58.572Z,99007.22
2022-12-31T12:31:04.562Z,99008.91
2022-12-31T12:32:16.424Z,99017.31
2022-12-31T12:33:21.072Z,99008.94
2022-12-31T12:34:31.534Z,99011.06
2022-12-31T12:35:36.377Z,99013.56
2022-12-31T12:36:47.224Z,99002.81
2022-12-31T12:37:58.469Z,99004.91
2022-12-31T12:39:25.370Z,99006.44
2022-12-31T12:40:33.662Z,99005.16
2022-12-31T12:41:40.581Z,99005.13
2022-12-31T12:42:48.705Z,98996.53
2022-12-31T12:44:06.425Z,99009.69
2022-12-31T12:45:21.052Z,99012.03
2022-12-31T12:46:33.096Z,98997.50
2022-12-31T12:47:36.554Z,99005.41
2022-12-31T12:48:42.661Z,99010.16
2022-12-31T12:49:49.202Z,99012.97
2022-12-31T12:50:52.427Z,99011.25
2022-12-31T12:52:30.659Z,99012.28
2022-12-31T12:53:58.250Z,99013.03
2022-12-31T12:55:26.597Z,99008.88
2022-12-31T12:56:47.544Z,99012.94
2022-12-31T12:57:56.090Z,99005.72
2022-12-31T12:59:08.073Z,99006.25
2022-12-31T13:00:17.808Z,99009.72
2022-12-31T13:01:54.219Z,99004.72
2022-12-31T13:03:25.254Z,99002.19
2022-12-31T13:04:56.815Z,98996.47
2022-12-31T13:06:23.989Z,98994.16
2022-12-31T13:07:55.682Z,98996.78
2022-12-31T13:09:33.720Z,98994.72
2022-12-31T13:11:03.813Z,98992.38
2022-12-31T13:12:27.438Z,98998.84
2022-12-31T13:14:00.755Z,99004.19
2022-12-31T13:15:28.386Z,99006.31
2022-12-31T13:16:45.402Z,98999.41
2022-12-31T13:18:04.543Z,99004.69
2022-12-31T13:19:35.480Z,98998.44
2022-12-31T13:20:49.307Z,99011.03
2022-12-31T13:22:01.631Z,99010.00
2022-12-31T13:23:11.463Z,99019.16
2022-12-31T13:24:47.381Z,99019.13
2022-12-31T13:25:53.606Z,99029.84
2022-12-31T13:27:14.255Z,99029.06
2022-12-31T13:28:19.617Z,99027.78
2022-12-31T13:29:26.610Z,99016.53
2022-12-31T13:30:43.524Z,99017.56
2022-12-31T13:31:49.518Z,99021.75
2022-12-31T13:33:24.530Z,99025.16
2022-12-31T13:34:34.337Z,99018.37
2022-12-31T13:35:51.056Z,99023.06
2022-12-31T13:36:56.829Z,99028.53
2022-12-31T13:38:10.320Z,99022.81
2022-12-31T13:39:25.205Z,99008.94
2022-12-31T13:40:36.044Z,99011.03
2022-12-31T13:41:59.092Z,99023.56
2022-12-31T13:43:18.914Z,99016.53
2022-12-31T13:44:26.939Z,99027.00
2022-12-31T13:45:42.439Z,99019.41
2022-12-31T13:47:01.977Z,99024.63
2022-12-31T13:48:15.535Z,99017.06
2022-12-31T13:49:40.548Z,99019.69
2022-12-31T13:50:52.207Z,99020.44
2022-12-31T13:52:40.402Z,99025.69
2022-12-31T13:53:58.218Z,99037.47
2022-12-31T13:55:10.263Z,99035.38
2022-12-31T13:56:19.712Z,99041.37
2022-12-31T13:57:32.002Z,99048.44
2022-12-31T13:58:44.291Z,99045.03
2022-12-31T13:59:55.295Z,99041.37